Time;durP1;ratioP1;P1;durP2;ratioP2;P2;SDS_P1;SDS_P2;PMS_P1;PMS_P2;Temp;Humidity;BMP_temperature;BMP_pressure;BME280_temperature;BME280_humidity;BME280_pressure;Samples;Min_cycle;Max_cycle;Signal;HPM_P1;HPM_P2
2022/02/11 00:00:53;;;;;;;6.20;5.00;;;;;;;3.13;83.59;99561.80;431922;1270;141222;-67
2022/02/11 00:11:00;;;;;;;6.90;4.90;;;;;;;3.12;84.05;99555.98;432181;1270;154917;-67
2022/02/11 00:21:05;;;;;;;7.30;5.00;;;;;;;3.12;84.15;99559.95;431613;1271;141366;-67
2022/02/11 01:02:22;;;;;;;3.60;3.30;;;;;;;3.04;84.69;99582.53;430966;1271;141046;-67
2022/02/11 01:12:29;;;;;;;4.20;3.70;;;;;;;3.06;84.67;99581.77;429618;1271;141243;-67
2022/02/11 01:23:01;;;;;;;4.70;3.60;;;;;;;3.04;84.74;99578.00;431540;1271;141166;-71
2022/02/11 01:33:28;;;;;;;3.70;3.40;;;;;;;3.01;84.80;99575.52;429774;1271;144474;-70
2022/02/11 01:43:57;;;;;;;3.00;2.60;;;;;;;2.85;84.72;99568.43;431313;1271;141465;-68
2022/02/11 01:54:10;;;;;;;2.90;2.50;;;;;;;2.80;84.81;99574.13;430363;1271;255783;-70
2022/02/11 02:25:15;;;;;;;4.40;3.10;;;;;;;2.64;84.89;99560.98;417865;1311;601175;-69
2022/02/11 02:35:49;;;;;;;6.10;3.20;;;;;;;2.58;85.23;99560.99;427237;1281;199743;-70
2022/02/11 02:56:45;;;;;;;3.20;2.90;;;;;;;2.48;85.43;99573.73;428712;1282;142066;-69
2022/02/11 03:17:54;;;;;;;5.80;4.30;;;;;;;2.61;85.59;99576.11;430834;1276;140455;-68
2022/02/11 03:49:13;;;;;;;6.10;4.50;;;;;;;2.79;85.30;99570.70;429775;1277;141248;-71
2022/02/11 04:20:56;;;;;;;7.70;5.60;;;;;;;2.91;85.28;99559.92;429171;1278;140975;-70
2022/02/11 05:02:07;;;;;;;10.00;6.90;;;;;;;3.11;85.21;99544.60;429649;1277;141343;-70
2022/02/11 05:12:13;;;;;;;8.80;6.60;;;;;;;3.08;85.27;99547.10;429407;1277;166010;-71
2022/02/11 05:22:19;;;;;;;8.80;6.30;;;;;;;3.07;85.25;99553.54;429457;1277;141544;-70
2022/02/11 05:32:25;;;;;;;7.20;6.00;;;;;;;3.01;85.26;99546.80;429319;1277;140954;-70
2022/02/11 05:42:31;;;;;;;11.30;9.80;;;;;;;2.98;85.29;99541.55;429508;1274;142014;-69
2022/02/11 05:52:38;;;;;;;12.20;10.90;;;;;;;2.99;85.48;99543.44;429112;1276;141657;-70
2022/02/11 06:02:44;;;;;;;11.30;8.70;;;;;;;2.99;85.42;99545.86;429386;1276;141375;-68
2022/02/11 06:12:49;;;;;;;15.30;10.60;;;;;;;2.93;85.39;99540.84;435050;1275;141671;-69
2022/02/11 06:22:56;;;;;;;17.50;12.00;;;;;;;2.94;85.50;99546.02;432172;1274;145894;-69
2022/02/11 06:33:02;;;;;;;18.30;13.20;;;;;;;3.00;85.36;99554.27;430076;1273;140877;-71
2022/02/11 06:43:08;;;;;;;22.90;15.00;;;;;;;3.06;85.92;99561.18;433918;1273;147183;-69
2022/02/11 06:53:14;;;;;;;17.80;14.40;;;;;;;3.14;85.72;99567.47;430103;1273;142258;-68
2022/02/11 07:03:20;;;;;;;23.00;16.50;;;;;;;3.19;85.61;99568.52;430175;1273;141788;-71
2022/02/11 07:13:26;;;;;;;27.10;20.40;;;;;;;3.26;85.88;99565.88;430129;1273;143475;-68
2022/02/11 07:23:32;;;;;;;24.00;17.40;;;;;;;3.29;86.01;99549.34;430168;1273;141627;-71
2022/02/11 07:33:38;;;;;;;21.00;14.90;;;;;;;3.32;85.97;99549.75;429618;1273;142457;-72
2022/02/11 07:43:45;;;;;;;17.00;14.20;;;;;;;3.35;86.16;99547.92;430276;1273;141776;-72
2022/02/11 07:53:51;;;;;;;24.30;18.20;;;;;;;3.47;85.86;99548.20;431124;1273;141406;-71
2022/02/11 08:03:57;;;;;;;23.70;17.60;;;;;;;3.61;86.12;99544.06;430668;1274;142523;-70
2022/02/11 08:14:03;;;;;;;22.20;13.80;;;;;;;3.80;86.06;99551.52;431143;1273;143807;-71
2022/02/11 08:24:09;;;;;;;19.10;13.60;;;;;;;3.80;85.93;99559.85;429883;1273;141693;-61
2022/02/11 08:34:15;;;;;;;15.50;11.30;;;;;;;3.76;85.78;99554.96;431844;1273;140574;-77
2022/02/11 08:44:21;;;;;;;11.50;7.50;;;;;;;3.73;85.56;99554.02;433744;1274;141307;-76
2022/02/11 08:54:27;;;;;;;10.30;8.10;;;;;;;3.74;85.05;99558.47;432847;1273;141379;-76
2022/02/11 09:04:36;;;;;;;9.40;6.10;;;;;;;3.71;84.59;99559.29;433327;1273;141312;-72
2022/02/11 09:14:42;;;;;;;11.50;8.10;;;;;;;3.76;84.46;99559.27;430371;1274;142035;-72
2022/02/11 09:24:48;;;;;;;9.50;7.20;;;;;;;3.74;84.54;99560.92;430778;1273;141381;-65
2022/02/11 09:34:54;;;;;;;7.70;6.30;;;;;;;3.66;84.18;99556.50;431667;1274;140635;-70
2022/02/11 09:45:00;;;;;;;9.40;6.70;;;;;;;3.72;84.27;99561.84;429604;1273;142052;-72
2022/02/11 10:05:33;;;;;;;3.70;3.30;;;;;;;3.36;84.22;99574.69;432306;1274;141102;-72
2022/02/11 10:15:43;;;;;;;4.70;4.20;;;;;;;3.40;83.67;99576.83;430856;1274;142511;-65
2022/02/11 10:26:06;;;;;;;6.80;4.90;;;;;;;3.24;83.76;99572.86;432817;1271;142878;-66
2022/02/11 10:36:18;;;;;;;4.90;4.40;;;;;;;3.05;83.83;99562.75;433919;1270;141466;-68
2022/02/11 10:46:47;;;;;;;5.20;4.20;;;;;;;2.85;84.01;99564.80;431556;1271;141750;-66
2022/02/11 10:56:55;;;;;;;5.50;4.00;;;;;;;2.72;83.62;99564.86;431836;1271;141809;-63
2022/02/11 11:07:03;;;;;;;6.00;4.90;;;;;;;2.44;83.75;99559.19;431083;1271;140530;-66
2022/02/11 11:17:09;;;;;;;5.80;4.40;;;;;;;2.28;83.93;99549.11;431591;1271;141170;-62
2022/02/11 11:27:45;;;;;;;5.40;4.40;;;;;;;2.11;83.87;99547.21;430498;1272;142562;-64
2022/02/11 11:38:11;;;;;;;6.00;5.00;;;;;;;2.07;83.97;99547.14;431247;1270;141279;-63
2022/02/11 11:48:18;;;;;;;5.70;4.20;;;;;;;2.05;83.86;99557.73;431228;1270;141241;-64
2022/02/11 11:58:47;;;;;;;6.00;3.90;;;;;;;1.96;83.84;99562.31;431498;1271;146780;-67
2022/02/11 12:08:53;;;;;;;4.70;3.30;;;;;;;1.88;83.79;99568.23;430845;1271;142354;-64
2022/02/11 12:18:59;;;;;;;3.40;2.90;;;;;;;1.75;83.58;99573.79;431170;1271;210200;-70
2022/02/11 12:29:07;;;;;;;4.00;3.20;;;;;;;1.74;83.65;99585.20;431786;1271;141293;-69
2022/02/11 12:39:20;;;;;;;4.80;4.00;;;;;;;1.56;83.45;99601.93;431110;1271;141569;-68
2022/02/11 12:49:26;;;;;;;4.70;3.80;;;;;;;1.39;83.46;99610.80;431958;1271;142189;-70
2022/02/11 12:59:32;;;;;;;6.60;5.10;;;;;;;1.19;83.70;99633.73;431366;1271;140795;-63
2022/02/11 13:09:39;;;;;;;3.30;2.80;;;;;;;0.88;83.79;99654.10;430944;1271;141172;-64
2022/02/11 13:19:48;;;;;;;3.90;3.50;;;;;;;0.70;84.10;99664.88;433925;1271;141071;-69
2022/02/11 13:30:03;;;;;;;4.50;3.60;;;;;;;0.61;84.42;99682.10;429652;1271;163427;-64
2022/02/11 13:40:23;;;;;;;3.70;3.30;;;;;;;0.47;84.55;99697.22;432468;1271;142486;-63
2022/02/11 13:50:30;;;;;;;4.50;3.70;;;;;;;0.36;84.87;99712.24;433315;1271;143319;-64
2022/02/11 14:00:37;;;;;;;3.70;3.10;;;;;;;0.42;84.88;99728.66;431059;1271;140767;-65
2022/02/11 14:10:44;;;;;;;4.40;2.80;;;;;;;0.40;84.89;99745.23;432676;1271;140610;-64
2022/02/11 14:20:50;;;;;;;3.10;2.40;;;;;;;0.37;85.06;99754.26;430654;1271;140225;-63
2022/02/11 14:30:56;;;;;;;2.80;2.50;;;;;;;0.33;85.18;99777.92;431877;1271;174267;-64
2022/02/11 14:51:26;;;;;;;6.90;3.80;;;;;;;0.18;85.48;99806.10;430114;1271;142052;-70
2022/02/11 15:01:32;;;;;;;8.30;6.50;;;;;;;0.19;85.85;99819.15;431888;1271;140379;-71
2022/02/11 15:11:38;;;;;;;6.50;5.40;;;;;;;0.11;85.86;99839.08;431157;1270;142767;-64
2022/02/11 15:21:46;;;;;;;10.40;7.60;;;;;;;0.09;86.15;99858.41;430379;1271;140888;-62
2022/02/11 15:31:52;;;;;;;11.40;7.90;;;;;;;0.10;86.08;99866.13;430795;1271;142133;-62
2022/02/11 15:41:58;;;;;;;10.60;8.40;;;;;;;0.03;86.25;99885.19;430305;1270;141339;-64
2022/02/11 15:52:05;;;;;;;12.30;10.30;;;;;;;-0.10;86.46;99899.66;429996;1270;143364;-66
2022/02/11 16:02:12;;;;;;;10.10;8.10;;;;;;;-0.13;86.49;99910.04;431593;1271;141467;-62
2022/02/11 16:12:18;;;;;;;9.60;7.00;;;;;;;-0.14;86.70;99921.92;429923;1271;141753;-74
2022/02/11 16:22:26;;;;;;;13.30;9.30;;;;;;;-0.14;86.99;99943.77;431474;1270;140957;-66
2022/02/11 16:32:32;;;;;;;11.70;8.40;;;;;;;-0.11;87.27;99960.25;432903;1270;142553;-59
2022/02/11 16:42:38;;;;;;;12.10;9.50;;;;;;;-0.11;87.28;99978.84;429718;1271;144020;-64
2022/02/11 16:52:45;;;;;;;10.80;8.40;;;;;;;-0.15;87.35;100000.76;433730;1271;140287;-56
2022/02/11 17:02:51;;;;;;;10.00;6.70;;;;;;;-0.17;87.34;100014.03;436209;1270;141793;-59
2022/02/11 17:12:57;;;;;;;9.50;6.60;;;;;;;-0.12;87.54;100031.88;430298;1270;142188;-54
2022/02/11 17:23:03;;;;;;;13.00;9.20;;;;;;;-0.19;87.40;100037.64;431736;1271;141661;-61
2022/02/11 17:33:09;;;;;;;13.90;9.60;;;;;;;-0.28;87.43;100048.23;430768;1271;142466;-58
2022/02/11 17:43:15;;;;;;;13.90;10.00;;;;;;;-0.31;87.63;100053.61;431212;1270;141622;-75
2022/02/11 17:53:22;;;;;;;13.00;10.70;;;;;;;-0.35;87.62;100067.77;431315;1270;142414;-69
2022/02/11 18:03:29;;;;;;;11.30;8.90;;;;;;;-0.38;87.76;100076.92;430399;1270;142044;-69
2022/02/11 18:13:36;;;;;;;11.30;8.80;;;;;;;-0.40;88.17;100089.84;431409;1270;141100;-70
2022/02/11 18:23:42;;;;;;;12.60;7.10;;;;;;;-0.36;88.24;100100.29;430719;1271;143004;-70
2022/02/11 18:33:50;;;;;;;11.70;7.30;;;;;;;-0.23;88.22;100121.66;429803;1270;142171;-69
2022/02/11 18:43:56;;;;;;;11.60;7.60;;;;;;;-0.31;88.10;100126.89;430666;1271;141887;-69
2022/02/11 18:54:03;;;;;;;11.00;7.50;;;;;;;-0.38;88.23;100131.63;430006;1270;141609;-68
2022/02/11 19:04:09;;;;;;;10.90;8.10;;;;;;;-0.40;88.42;100137.48;431527;1270;142334;-68
2022/02/11 19:14:16;;;;;;;11.80;9.30;;;;;;;-0.32;88.61;100150.48;430969;1271;141341;-68
2022/02/11 19:24:22;;;;;;;14.50;10.70;;;;;;;-0.19;88.64;100166.70;430789;1270;141525;-68
2022/02/11 19:34:28;;;;;;;17.50;12.10;;;;;;;-0.10;88.64;100179.70;432061;1270;141461;-70
2022/02/11 19:44:34;;;;;;;15.50;12.30;;;;;;;-0.09;88.76;100189.84;431273;1270;140795;-61
2022/02/11 19:54:43;;;;;;;29.40;14.70;;;;;;;-0.11;88.48;100188.48;436244;1270;142088;-65
2022/02/11 20:04:49;;;;;;;19.30;13.20;;;;;;;-0.10;88.84;100197.06;439027;1271;142910;-65
2022/02/11 20:14:55;;;;;;;21.60;13.60;;;;;;;0.04;88.99;100208.98;439821;1270;141998;-64
2022/02/11 20:25:01;;;;;;;17.30;13.20;;;;;;;-0.03;88.85;100224.02;447202;1270;142176;-64
2022/02/11 20:35:09;;;;;;;21.20;14.20;;;;;;;0.05;89.22;100228.93;447547;1269;142289;-65
2022/02/11 20:45:15;;;;;;;17.70;13.40;;;;;;;0.14;88.89;100234.52;446594;1271;141680;-64
2022/02/11 20:55:21;;;;;;;16.70;13.90;;;;;;;0.18;89.00;100244.63;445420;1270;141470;-64
2022/02/11 21:05:27;;;;;;;21.10;14.70;;;;;;;0.27;89.10;100253.84;430356;1271;141706;-65
2022/02/11 21:15:33;;;;;;;27.60;17.10;;;;;;;0.35;88.96;100258.76;446257;1270;141336;-65
2022/02/11 21:25:39;;;;;;;25.50;15.00;;;;;;;0.40;88.90;100264.23;447425;1269;141596;-66
2022/02/11 21:35:47;;;;;;;23.30;16.70;;;;;;;0.44;88.76;100279.84;432948;1271;144203;-64
2022/02/11 21:45:53;;;;;;;22.60;16.70;;;;;;;0.51;89.11;100291.48;430277;1270;141865;-64
2022/02/11 21:55:59;;;;;;;25.20;15.60;;;;;;;0.55;88.98;100301.42;439030;1271;142280;-64
2022/02/11 22:06:05;;;;;;;25.60;15.80;;;;;;;0.56;88.81;100308.98;446798;1270;141424;-64
2022/02/11 22:16:11;;;;;;;23.70;14.20;;;;;;;0.64;88.68;100311.84;447600;1269;142155;-64
2022/02/11 22:26:17;;;;;;;20.80;14.50;;;;;;;0.72;88.78;100320.52;444516;1270;142799;-64
2022/02/11 22:36:22;;;;;;;17.80;12.50;;;;;;;0.72;88.51;100343.11;431427;1270;142148;-64
2022/02/11 22:46:28;;;;;;;15.60;11.40;;;;;;;0.65;88.50;100366.27;438608;1270;142078;-63
2022/02/11 22:56:34;;;;;;;10.30;7.80;;;;;;;0.47;88.14;100381.96;430598;1270;141976;-64
2022/02/11 23:06:41;;;;;;;8.60;6.00;;;;;;;0.22;87.59;100403.20;429850;1270;141992;-65
2022/02/11 23:16:47;;;;;;;9.30;5.90;;;;;;;0.11;87.36;100414.31;433162;1270;141202;-65
2022/02/11 23:26:53;;;;;;;8.30;6.30;;;;;;;0.05;87.29;100425.55;437836;1270;141533;-63
2022/02/11 23:36:59;;;;;;;8.70;6.00;;;;;;;-0.25;87.15;100443.11;432855;1271;211943;-66
2022/02/11 23:47:05;;;;;;;8.10;5.10;;;;;;;-0.50;87.04;100454.08;447322;1270;142925;-63
2022/02/11 23:57:11;;;;;;;7.80;3.30;;;;;;;-0.74;86.77;100472.74;434812;1271;142193;-63
